This is the latest recevied weather packets stored in our database for station/object SV1TQE-1. If no packets are shown the sender has not sent any weather packets the latest 10 day(s).
| Time | Temp. | Humidity | Pressure | Rain* | Wind** | Luminosity | Snow |
|---|---|---|---|---|---|---|---|
| 1787769502 | 30.56° C | 84% | 1017.6 hPa | - | - | - | - |
| 1787768602 | 30.56° C | 82% | 1017.4 hPa | - | - | - | - |
| 1787767702 | 30.56° C | 81% | 1017.4 hPa | - | - | - | - |
| 1787766802 | 30.56° C | 85% | 1017.3 hPa | - | - | - | - |
| 1787765903 | 30.56° C | 85% | 1017 hPa | - | - | - | - |
| 1787765001 | 30.56° C | 88% | 1016.8 hPa | - | - | - | - |
| 1787764101 | 30.56° C | 94% | 1016.8 hPa | - | - | - | - |
| 1787763201 | 30.56° C | 96% | 1016.7 hPa | - | - | - | - |
| 1787762301 | 30.56° C | 99% | 1016.6 hPa | - | - | - | - |
| 1787761401 | 31.67° C | 100% | 1016.4 hPa | - | - | - | - |
| 1787760501 | 32.22° C | 81% | 1016.3 hPa | - | - | - | - |
| 1787759601 | 32.22° C | 77% | 1016.2 hPa | - | - | - | - |
| 1787758700 | 33.89° C | 68% | 1016 hPa | - | - | - | - |
| 1787757800 | 36.11° C | 51% | 1016 hPa | - | - | - | - |
| 1787756900 | 36.11° C | 48% | 1015.9 hPa | - | - | - | - |
| 1787756000 | 37.78° C | 47% | 1015.9 hPa | - | - | - | - |
| 1787755100 | 37.78° C | 46% | 1015.7 hPa | - | - | - | - |
| 1787754200 | 38.33° C | 46% | 1015.6 hPa | - | - | - | - |
| 1787753300 | 38.33° C | 46% | 1015.6 hPa | - | - | - | - |
| 1787752398 | 38.33° C | 46% | 1015.7 hPa | - | - | - | - |
| 1787751478 | 39.44° C | 45% | 1015.6 hPa | - | - | - | - |
| 1787750590 | 38.89° C | 44% | 1015.8 hPa | - | - | - | - |
| 1787749659 | 40° C | 43% | 1015.6 hPa | - | - | - | - |
| 1787748753 | 39.44° C | 46% | 1015.8 hPa | - | - | - | - |
| 1787747818 | 39.44° C | 50% | 1015.9 hPa | - | - | - | - |
* Rain since midnight (hover to see other rain measurements)
** Current wind speed in m/s (hover to see current wind gust speed)